LiveFlight Tracker CHF562





Flight Info CHF562



Flight: CHF562 PIC: Peng Zhang
Departure: NTAA Arrival: NSTU
Registration: B-9959 Aircraft: AIRBUS A320
Current Alt: 0 FT GS: 0 KT
Last Info: 2017-10-17 10:09:11
Distance: 0 NM Status: Arrived


ACARS Info CHF562



Pilot Flight Time ALT GS Latitude Longitude
CSN771 CHF558 2017-10-12 10:25:42 0 0 -33.3992305544074 -70.7921437870907
CSN771 CHF558 2017-10-12 10:25:08 0 0 -33.3992305544074 -70.7921437870907
CSN771 CHF558 2017-10-12 10:23:05 0 8 -33.3996915393906 -70.7904432756467
CSN771 CHF558 2017-10-12 10:21:03 0 66 -33.3904726674114 -70.785942901641
CSN771 CHF558 2017-10-12 10:19:00 2904 156 -33.3070405340297 -70.7904228954091
CSN771 CHF558 2017-10-12 10:16:57 4728 187 -33.2114112211976 -70.7955561504764
CSN771 CHF558 2017-10-12 10:14:54 5807 268 -33.0830195611284 -70.8024459784187
CSN771 CHF558 2017-10-12 10:12:52 9022 284 -32.9252915388686 -70.8060507162132
CSN771 CHF558 2017-10-12 10:10:49 11440 342 -32.8227350279865 -70.6506893578485
CSN771 CHF558 2017-10-12 10:08:46 15968 338 -32.8446818912222 -70.4185993262801
CSN771 CHF558 2017-10-12 10:06:44 20364 309 -32.8647387569582 -70.203967780385
CSN771 CHF558 2017-10-12 10:04:41 23891 311 -32.8829150366589 -69.9952413958708
CSN771 CHF558 2017-10-12 10:02:38 27080 325 -32.8752286102781 -69.7853435365685
CSN771 CHF558 2017-10-12 10:00:36 31450 336 -32.8660865878999 -69.5640024606804
CSN771 CHF558 2017-10-12 09:58:33 36411 344 -32.8560688865411 -69.3291248601791
CSN771 CHF558 2017-10-12 09:56:28 38025 358 -32.8453126510508 -69.0888172917154
CSN771 CHF558 2017-10-12 09:54:25 38022 360 -32.8345809687715 -68.8464291387716
CSN771 CHF558 2017-10-12 09:52:23 38022 360 -32.8459964760187 -68.6045897235873
CSN771 CHF558 2017-10-12 09:50:21 38025 360 -32.8635785948134 -68.3625759600652
CSN771 CHF558 2017-10-12 09:48:17 38031 362 -32.880605684648 -68.1197585526465
CSN771 CHF558 2017-10-12 09:46:16 38038 352 -32.8975288439736 -67.8804182512487
CSN771 CHF558 2017-10-12 09:44:10 38045 354 -32.9213879864609 -67.6432807367049
CSN771 CHF558 2017-10-12 09:42:07 38051 354 -32.9652127803461 -67.4095136150424
CSN771 CHF558 2017-10-12 09:40:05 38061 363 -32.9930492507364 -67.1725351658267
CSN771 CHF558 2017-10-12 09:38:02 38061 377 -32.8798915062583 -66.9560645318613
CSN771 CHF558 2017-10-12 09:35:59 38064 377 -32.7630632704413 -66.7420906201242
CSN771 CHF558 2017-10-12 09:33:57 38071 375 -32.6444233117974 -66.5259025394028
CSN771 CHF558 2017-10-12 09:31:52 38074 373 -32.5284596562562 -66.3149311037772
CSN771 CHF558 2017-10-12 09:29:50 38081 371 -32.4102971411066 -66.1045504071324
CSN771 CHF558 2017-10-12 09:27:45 38084 369 -32.2927579069206 -65.8976976124223
CSN771 CHF558 2017-10-12 09:25:43 38087 363 -32.1793264339524 -65.6894539024005
CSN771 CHF558 2017-10-12 09:23:40 38104 371 -32.0654011013015 -65.4818851787571
CSN771 CHF558 2017-10-12 09:21:37 38094 346 -32.0878739750391 -65.2564875857283
CSN771 CHF558 2017-10-12 09:19:35 38091 344 -32.1340223946143 -65.0312983606873
CSN771 CHF558 2017-10-12 09:17:33 38091 344 -32.1797976071557 -64.8067755601247
CSN771 CHF558 2017-10-12 09:15:29 38091 342 -32.2251001066537 -64.5824216723798
CSN771 CHF558 2017-10-12 09:13:26 38091 340 -32.2698049124406 -64.3588288311655
CSN771 CHF558 2017-10-12 09:11:24 38091 340 -32.3142807888144 -64.1338951969003
CSN771 CHF558 2017-10-12 09:09:20 38091 340 -32.3576194189149 -63.910942156609
CSN771 CHF558 2017-10-12 09:07:18 38091 340 -32.4012104055006 -63.6882420621902
CSN771 CHF558 2017-10-12 09:05:15 38087 340 -32.4442594559661 -63.465288419837
CSN771 CHF558 2017-10-12 09:03:12 38087 340 -32.4868746978383 -63.2419925592478
CSN771 CHF558 2017-10-12 09:01:10 38087 340 -32.5287266266647 -63.0183414110313
CSN771 CHF558 2017-10-12 08:59:06 38005 340 -32.5704105028986 -62.7942962635256
CSN771 CHF558 2017-10-12 08:57:04 36306 336 -32.611172155272 -62.5713817244275
CSN771 CHF558 2017-10-12 08:55:02 34341 332 -32.6522038543092 -62.3485969601801
CSN771 CHF558 2017-10-12 08:52:57 31198 350 -32.6910154309596 -62.1235468114914
CSN771 CHF558 2017-10-12 08:50:55 27697 363 -32.7222153425138 -61.8836876954789
CSN771 CHF558 2017-10-12 08:48:52 23766 365 -32.7530186784924 -61.6401452229054
CSN771 CHF558 2017-10-12 08:46:50 19350 350 -32.7829860153564 -61.4011953350384
CSN771 CHF558 2017-10-12 08:44:47 13376 342 -32.8121341405399 -61.1666239514813
CSN771 CHF558 2017-10-12 08:42:42 8248 268 -32.8393260893788 -60.9641372277745
CSN771 CHF558 2017-10-12 08:40:40 2467 189 -32.864083646021 -60.7987231117394
CSN771 CHF558 2017-10-12 08:38:36 0 6 -32.9163687514607 -60.7871979312701
CSN771 CHF558 2017-10-12 08:36:34 0 10 -32.9157075489733 -60.781507605635
CSN771 CHF558 2017-10-12 08:34:31 0 2 -32.9150236070768 -60.7810258484877
CSN771 CHF558 2017-10-12 08:32:29 0 0 -32.9154152796776 -60.7804227169982
CSN771 CHF558 2017-10-12 08:30:24 0 0 -32.9154152796776 -60.7804227169982
CSN771 CHF558 2017-10-12 08:28:21 0 0 -32.9154152796776 -60.7804227169982